Time;durP1;ratioP1;P1;durP2;ratioP2;P2;SDS_P1;SDS_P2;PMS_P1;PMS_P2;Temp;Humidity;BMP_temperature;BMP_pressure;BME280_temperature;BME280_humidity;BME280_pressure;Samples;Min_cycle;Max_cycle;Signal;HPM_P1;HPM_P2
2023/12/15 00:00:57;;;;;;;10.80;7.50;;;5.10;99.90;;;;;;5031557;28;20559;-70
2023/12/15 00:03:22;;;;;;;9.10;6.53;;;5.10;99.90;;;;;;5038123;28;20173;-70
2023/12/15 00:05:48;;;;;;;11.53;6.40;;;5.20;99.90;;;;;;5039584;28;20174;-70
2023/12/15 00:08:14;;;;;;;8.77;6.90;;;5.20;99.90;;;;;;5028444;28;20174;-70
2023/12/15 00:10:39;;;;;;;7.07;6.17;;;5.20;99.90;;;;;;5072064;22;20704;-68
2023/12/15 00:13:04;;;;;;;7.73;6.23;;;5.10;99.90;;;;;;5067781;28;20181;-68
2023/12/15 00:15:30;;;;;;;7.43;5.53;;;5.10;99.90;;;;;;5065997;28;20180;-68
2023/12/15 00:17:56;;;;;;;7.90;5.50;;;5.10;99.90;;;;;;5074507;28;20176;-68
2023/12/15 00:20:21;;;;;;;6.83;6.07;;;5.20;99.90;;;;;;5060187;28;20218;-68
2023/12/15 00:22:47;;;;;;;7.27;6.00;;;5.20;99.90;;;;;;5054907;28;20553;-68
2023/12/15 00:25:12;;;;;;;8.13;5.63;;;5.10;99.90;;;;;;5072800;28;20565;-68
2023/12/15 00:27:38;;;;;;;9.40;6.47;;;5.10;99.90;;;;;;5066587;28;20174;-70
2023/12/15 00:30:04;;;;;;;7.37;5.70;;;5.10;99.90;;;;;;5058627;28;20649;-68
2023/12/15 00:32:30;;;;;;;9.67;6.57;;;5.10;99.90;;;;;;5066513;28;20184;-68
2023/12/15 00:34:55;;;;;;;8.90;5.80;;;5.10;99.90;;;;;;5072847;28;20431;-68
2023/12/15 00:37:21;;;;;;;7.27;4.63;;;5.10;99.90;;;;;;5060625;28;20280;-70
2023/12/15 00:39:48;;;;;;;5.47;4.40;;;5.10;99.90;;;;;;5054161;28;20201;-68
2023/12/15 00:42:13;;;;;;;6.03;4.87;;;5.00;99.90;;;;;;5063538;28;20175;-69
2023/12/15 00:44:38;;;;;;;6.33;4.03;;;5.00;99.90;;;;;;5067334;28;20511;-68
2023/12/15 00:47:04;;;;;;;5.17;4.17;;;5.00;99.90;;;;;;5073113;28;20192;-70
2023/12/15 00:49:29;;;;;;;4.97;3.73;;;5.00;99.90;;;;;;5055056;28;20205;-70
2023/12/15 00:51:55;;;;;;;3.20;2.90;;;4.90;99.90;;;;;;5070008;28;20182;-68
2023/12/15 00:54:20;;;;;;;2.63;2.43;;;4.90;99.90;;;;;;5054283;28;20204;-68
2023/12/15 00:56:46;;;;;;;3.97;3.57;;;4.90;99.90;;;;;;5053607;28;20186;-68
2023/12/15 00:59:12;;;;;;;3.63;3.10;;;4.90;99.90;;;;;;5060882;28;20197;-68
2023/12/15 01:01:37;;;;;;;6.57;3.70;;;4.80;99.90;;;;;;5064979;28;20181;-67
2023/12/15 01:04:03;;;;;;;4.10;3.20;;;4.90;99.90;;;;;;5069906;28;20650;-68
2023/12/15 01:06:30;;;;;;;4.27;3.63;;;4.90;99.90;;;;;;5089672;28;20187;-68
2023/12/15 01:08:56;;;;;;;3.70;3.30;;;4.90;99.90;;;;;;5059620;28;20172;-68
2023/12/15 01:11:21;;;;;;;4.50;3.80;;;4.90;99.90;;;;;;5065738;28;20460;-68
2023/12/15 01:13:47;;;;;;;3.80;3.00;;;5.00;99.90;;;;;;5067482;28;20180;-68
2023/12/15 01:16:12;;;;;;;4.83;3.80;;;4.90;99.90;;;;;;5067354;28;20174;-69
2023/12/15 01:18:38;;;;;;;4.67;4.00;;;4.90;99.90;;;;;;5064919;28;20173;-68
2023/12/15 01:21:05;;;;;;;4.70;4.20;;;4.80;99.90;;;;;;5060853;28;20205;-68
2023/12/15 01:23:31;;;;;;;7.33;5.03;;;4.80;99.90;;;;;;5064161;28;20443;-70
2023/12/15 01:25:57;;;;;;;6.30;4.30;;;4.70;99.90;;;;;;5074018;28;20450;-68
2023/12/15 01:28:22;;;;;;;8.13;5.57;;;4.70;99.90;;;;;;5054924;28;20188;-70
2023/12/15 01:30:48;;;;;;;7.70;4.90;;;4.70;99.90;;;;;;5063494;28;20212;-69
2023/12/15 01:33:13;;;;;;;8.10;5.10;;;4.70;99.90;;;;;;5053399;28;20174;-70
2023/12/15 01:35:39;;;;;;;8.50;6.10;;;4.70;99.90;;;;;;5053449;28;20173;-70
2023/12/15 01:38:04;;;;;;;9.30;6.20;;;4.70;99.90;;;;;;5057139;28;20189;-69
2023/12/15 01:40:30;;;;;;;7.00;5.50;;;4.70;99.90;;;;;;5072435;28;20550;-70
2023/12/15 01:43:00;;;;;;;12.20;7.17;;;4.60;99.90;;;;;;5065715;28;20201;-71
2023/12/15 01:45:25;;;;;;;9.57;6.40;;;4.70;99.90;;;;;;5080015;28;20192;-70
2023/12/15 01:47:51;;;;;;;8.43;6.80;;;4.70;99.90;;;;;;5071351;28;20427;-70
2023/12/15 01:50:17;;;;;;;9.90;7.27;;;4.70;99.90;;;;;;5073083;28;20188;-70
2023/12/15 01:52:42;;;;;;;10.03;6.73;;;4.60;99.90;;;;;;5059186;28;20455;-70
2023/12/15 01:55:08;;;;;;;13.37;6.97;;;4.70;99.90;;;;;;5065328;28;20188;-69
2023/12/15 01:57:33;;;;;;;9.70;6.00;;;4.70;99.90;;;;;;5063503;28;20181;-70
2023/12/15 02:00:00;;;;;;;11.60;6.13;;;4.80;99.90;;;;;;5056032;28;20201;-68
2023/12/15 02:02:25;;;;;;;9.40;6.33;;;4.80;99.90;;;;;;5067844;28;20212;-68
2023/12/15 02:04:51;;;;;;;11.37;7.23;;;4.80;99.90;;;;;;5072760;28;20459;-70
2023/12/15 02:07:17;;;;;;;9.13;6.43;;;4.80;99.90;;;;;;5057415;28;20702;-68
2023/12/15 02:09:43;;;;;;;8.60;6.43;;;4.80;99.90;;;;;;5062368;28;20209;-69
2023/12/15 02:12:08;;;;;;;9.37;6.40;;;4.80;99.90;;;;;;5053164;28;20515;-67
2023/12/15 02:14:34;;;;;;;10.87;7.27;;;4.80;99.90;;;;;;5070359;28;20190;-67
2023/12/15 02:16:59;;;;;;;9.80;6.00;;;4.70;99.90;;;;;;5075360;28;20191;-68
2023/12/15 02:19:25;;;;;;;9.77;7.20;;;4.60;99.90;;;;;;5073180;28;20223;-70
2023/12/15 02:21:51;;;;;;;13.50;6.30;;;4.60;99.90;;;;;;5073532;28;20176;-70
2023/12/15 02:24:16;;;;;;;7.93;6.23;;;4.60;99.90;;;;;;5072030;28;20173;-70
2023/12/15 02:26:42;;;;;;;9.53;7.50;;;4.50;99.90;;;;;;5068290;28;20541;-70
2023/12/15 02:29:07;;;;;;;12.43;7.70;;;4.40;99.90;;;;;;5071255;28;20184;-70
2023/12/15 02:31:33;;;;;;;10.03;6.27;;;4.40;99.90;;;;;;5066081;28;20295;-69
2023/12/15 02:33:58;;;;;;;11.53;6.63;;;4.30;99.90;;;;;;5056827;28;20185;-69
2023/12/15 02:36:24;;;;;;;9.47;6.33;;;4.20;99.90;;;;;;5052302;28;20177;-70
2023/12/15 02:38:50;;;;;;;10.13;7.03;;;4.20;99.90;;;;;;5052414;28;20185;-69
2023/12/15 02:41:16;;;;;;;10.43;6.70;;;4.10;99.90;;;;;;5052852;28;20232;-69
2023/12/15 02:43:42;;;;;;;10.40;8.00;;;4.10;99.90;;;;;;5059509;28;20466;-69
2023/12/15 02:46:08;;;;;;;9.93;6.60;;;4.20;99.90;;;;;;5056759;28;20452;-69
2023/12/15 02:48:33;;;;;;;10.30;6.67;;;4.20;99.90;;;;;;5082903;28;20184;-70
2023/12/15 02:50:59;;;;;;;12.80;6.90;;;4.30;99.90;;;;;;5075861;28;20598;-70
2023/12/15 02:53:25;;;;;;;9.67;6.73;;;4.30;99.90;;;;;;5055649;28;20185;-69
2023/12/15 02:55:51;;;;;;;7.40;5.47;;;4.30;99.90;;;;;;5065289;28;20424;-69
2023/12/15 02:58:17;;;;;;;8.80;6.33;;;4.40;99.90;;;;;;5066108;28;20657;-69
2023/12/15 03:00:43;;;;;;;8.90;5.97;;;4.50;99.90;;;;;;5068565;28;20279;-69
2023/12/15 03:03:08;;;;;;;9.37;6.90;;;4.60;99.90;;;;;;5055068;28;20482;-70
2023/12/15 03:05:35;;;;;;;8.50;6.17;;;4.50;99.90;;;;;;5055314;28;20301;-69
2023/12/15 03:08:00;;;;;;;9.93;7.13;;;4.60;99.90;;;;;;5084699;28;20229;-69
2023/12/15 03:10:26;;;;;;;7.50;5.23;;;4.60;99.90;;;;;;5077091;28;20964;-69
2023/12/15 03:12:51;;;;;;;8.93;6.17;;;4.70;99.90;;;;;;5076035;28;20264;-70
2023/12/15 03:15:17;;;;;;;9.73;6.83;;;4.70;99.90;;;;;;5068294;28;20199;-69
2023/12/15 03:17:42;;;;;;;10.43;6.47;;;4.70;99.90;;;;;;5065875;28;20184;-70
2023/12/15 03:20:08;;;;;;;10.97;7.57;;;4.70;99.90;;;;;;5062501;28;20216;-70
2023/12/15 03:22:34;;;;;;;9.50;6.00;;;4.70;99.90;;;;;;5063826;28;20181;-70
2023/12/15 03:24:59;;;;;;;8.13;6.63;;;4.70;99.90;;;;;;5069313;28;20214;-69
2023/12/15 03:27:25;;;;;;;8.50;5.90;;;4.70;99.90;;;;;;5076287;28;20237;-69
2023/12/15 03:29:50;;;;;;;7.07;5.60;;;4.70;99.90;;;;;;5080062;28;20573;-70
2023/12/15 03:32:16;;;;;;;8.33;7.07;;;4.70;99.90;;;;;;5079450;28;20172;-70
2023/12/15 03:34:41;;;;;;;9.10;6.13;;;4.70;99.90;;;;;;5070207;28;20187;-69
2023/12/15 03:37:08;;;;;;;8.40;5.57;;;4.70;99.90;;;;;;5075126;28;20546;-70
2023/12/15 03:39:34;;;;;;;8.87;5.30;;;4.70;99.90;;;;;;5081933;28;20201;-70
2023/12/15 03:42:05;;;;;;;10.90;5.67;;;4.70;99.90;;;;;;5094589;28;20425;-70
2023/12/15 03:44:30;;;;;;;8.37;7.47;;;4.70;99.90;;;;;;5060459;28;20443;-69
2023/12/15 03:46:56;;;;;;;9.03;6.07;;;4.70;99.90;;;;;;5057894;28;20419;-69
2023/12/15 03:49:21;;;;;;;8.23;6.20;;;4.70;99.90;;;;;;5057977;28;20701;-70
2023/12/15 03:51:47;;;;;;;8.90;6.97;;;4.70;99.90;;;;;;5058173;28;20200;-69
2023/12/15 03:54:12;;;;;;;10.43;6.00;;;4.70;99.90;;;;;;5058858;28;20182;-70
2023/12/15 03:56:38;;;;;;;6.67;4.77;;;4.70;99.90;;;;;;5062725;28;20177;-69
2023/12/15 03:59:03;;;;;;;6.80;5.80;;;4.80;99.90;;;;;;5083273;28;20201;-70
2023/12/15 04:01:29;;;;;;;12.43;6.03;;;4.80;99.90;;;;;;5064060;28;20189;-69
2023/12/15 04:03:56;;;;;;;9.57;5.87;;;4.80;99.90;;;;;;5076710;28;20183;-69
2023/12/15 04:06:21;;;;;;;11.93;7.00;;;4.80;99.90;;;;;;5066112;28;20825;-70
2023/12/15 04:08:47;;;;;;;6.33;5.43;;;4.90;99.90;;;;;;5057907;28;20494;-70
2023/12/15 04:11:16;;;;;;;8.57;6.20;;;4.80;99.90;;;;;;5059400;28;20216;-69
2023/12/15 04:13:42;;;;;;;7.60;5.60;;;4.80;99.90;;;;;;5058941;28;20630;-70
2023/12/15 04:16:07;;;;;;;5.67;4.87;;;4.80;99.90;;;;;;5062314;28;20427;-69
2023/12/15 04:18:33;;;;;;;8.53;6.27;;;4.80;99.90;;;;;;5085074;28;20179;-70
2023/12/15 04:21:00;;;;;;;8.53;5.97;;;4.80;99.90;;;;;;5064989;28;20543;-69
2023/12/15 04:23:26;;;;;;;10.27;8.30;;;4.70;99.90;;;;;;5054695;28;20420;-70
2023/12/15 04:25:51;;;;;;;11.47;7.90;;;4.70;99.90;;;;;;5058151;28;20420;-71
2023/12/15 04:28:17;;;;;;;7.97;6.20;;;4.80;99.90;;;;;;5058897;28;20657;-69
2023/12/15 04:30:42;;;;;;;9.03;5.93;;;4.80;99.90;;;;;;5062721;28;20218;-69
2023/12/15 04:33:08;;;;;;;10.03;7.17;;;4.80;99.90;;;;;;5057453;28;20343;-69
2023/12/15 04:35:34;;;;;;;8.77;6.13;;;4.90;99.90;;;;;;5069339;28;20173;-71
2023/12/15 04:37:59;;;;;;;6.50;5.60;;;4.80;99.90;;;;;;5068151;28;20428;-69
2023/12/15 04:40:25;;;;;;;9.13;6.50;;;4.90;99.90;;;;;;5072359;28;20209;-70
2023/12/15 04:42:50;;;;;;;10.97;7.43;;;4.90;99.90;;;;;;5068797;28;20185;-69
2023/12/15 04:45:16;;;;;;;7.70;5.83;;;4.90;99.90;;;;;;5070465;28;20560;-70
2023/12/15 04:47:42;;;;;;;9.60;6.80;;;4.90;99.90;;;;;;5053956;28;20165;-69
2023/12/15 04:50:08;;;;;;;8.53;6.70;;;5.00;99.90;;;;;;5054137;28;20442;-70
2023/12/15 04:52:33;;;;;;;9.67;7.50;;;5.00;99.90;;;;;;5053880;28;20420;-70
2023/12/15 04:54:59;;;;;;;10.37;7.73;;;4.90;99.90;;;;;;5053968;28;20185;-69
2023/12/15 04:57:24;;;;;;;9.87;8.20;;;5.00;99.90;;;;;;5077544;28;20211;-70
2023/12/15 04:59:50;;;;;;;9.17;6.23;;;4.90;99.90;;;;;;5073730;28;20197;-69
2023/12/15 05:02:15;;;;;;;8.83;6.03;;;5.00;99.90;;;;;;5054247;28;20540;-69
2023/12/15 05:04:41;;;;;;;10.27;8.07;;;5.00;99.90;;;;;;5053814;28;20177;-70
2023/12/15 05:07:06;;;;;;;9.47;7.17;;;5.00;99.90;;;;;;5067020;28;20251;-70
2023/12/15 05:09:32;;;;;;;8.67;6.87;;;5.00;99.90;;;;;;5054551;28;20268;-70
2023/12/15 05:11:57;;;;;;;7.70;6.93;;;5.00;99.90;;;;;;5053729;28;20185;-70
2023/12/15 05:14:23;;;;;;;10.27;8.33;;;5.00;99.90;;;;;;5066207;28;20181;-70
2023/12/15 05:16:48;;;;;;;8.90;6.57;;;5.00;99.90;;;;;;5074792;28;20199;-69
2023/12/15 05:19:14;;;;;;;11.30;7.00;;;5.00;99.90;;;;;;5070634;28;20281;-70
2023/12/15 05:21:39;;;;;;;8.53;7.20;;;5.00;99.90;;;;;;5056874;28;20176;-70
2023/12/15 05:24:05;;;;;;;11.27;8.60;;;5.00;99.90;;;;;;5054504;28;20178;-70
2023/12/15 05:26:31;;;;;;;7.20;6.40;;;5.00;99.90;;;;;;5062585;28;20199;-70
2023/12/15 05:28:56;;;;;;;9.80;7.87;;;5.10;99.90;;;;;;5062002;28;20921;-70
2023/12/15 05:31:22;;;;;;;8.47;6.53;;;5.10;99.90;;;;;;5065715;28;20255;-70
2023/12/15 05:33:47;;;;;;;9.43;7.80;;;5.20;99.90;;;;;;5052341;28;20223;-70
2023/12/15 05:36:20;;;;;;;7.90;6.90;;;5.10;99.90;;;;;;5073862;28;20219;-70
2023/12/15 05:38:49;;;;;;;8.30;6.90;;;5.10;99.90;;;;;;5071233;28;20172;-70
2023/12/15 05:41:14;;;;;;;9.57;6.80;;;5.30;99.90;;;;;;5060860;28;20876;-70
2023/12/15 05:43:40;;;;;;;9.23;7.20;;;5.20;99.90;;;;;;5066292;28;20515;-70
2023/12/15 05:46:06;;;;;;;11.63;8.27;;;5.20;99.90;;;;;;5068830;28;20256;-69
2023/12/15 05:48:31;;;;;;;12.30;8.97;;;5.30;99.90;;;;;;5054804;28;20257;-69
2023/12/15 05:50:57;;;;;;;8.43;6.83;;;5.30;99.90;;;;;;5052967;28;20446;-69
2023/12/15 05:53:22;;;;;;;12.47;10.07;;;5.20;99.90;;;;;;5053466;28;20195;-72
2023/12/15 05:55:48;;;;;;;9.37;7.50;;;5.20;99.90;;;;;;5059783;28;20184;-70
2023/12/15 05:58:14;;;;;;;10.67;7.73;;;5.20;99.90;;;;;;5063277;28;20585;-70
2023/12/15 06:00:39;;;;;;;10.33;7.47;;;5.10;99.90;;;;;;5055468;28;20209;-69
2023/12/15 06:03:05;;;;;;;8.73;7.40;;;5.10;99.90;;;;;;5072859;28;20169;-70
2023/12/15 06:05:34;;;;;;;9.60;8.23;;;5.10;99.90;;;;;;5071835;28;20161;-70
2023/12/15 06:08:03;;;;;;;9.97;7.57;;;5.00;99.90;;;;;;5074816;28;20208;-70
2023/12/15 06:10:28;;;;;;;9.07;7.30;;;5.00;99.90;;;;;;5070161;22;20496;-70
2023/12/15 06:12:54;;;;;;;9.33;7.20;;;5.00;99.90;;;;;;5032705;28;20425;-70
2023/12/15 06:15:19;;;;;;;9.73;7.03;;;5.00;99.90;;;;;;5026731;28;20180;-70
2023/12/15 06:17:45;;;;;;;12.80;8.80;;;4.90;99.90;;;;;;5051588;28;20642;-70
2023/12/15 06:20:14;;;;;;;7.90;6.30;;;4.90;99.90;;;;;;5041370;28;20214;-70
2023/12/15 06:22:39;;;;;;;8.50;7.30;;;4.90;99.90;;;;;;5032723;28;20167;-70
2023/12/15 06:25:05;;;;;;;11.10;7.90;;;4.90;99.90;;;;;;5032687;28;20444;-69
2023/12/15 06:27:31;;;;;;;9.70;8.40;;;4.90;99.90;;;;;;5038783;28;20549;-70
2023/12/15 06:29:57;;;;;;;9.53;7.50;;;4.80;99.90;;;;;;5037523;28;20634;-70
2023/12/15 06:32:22;;;;;;;8.57;7.23;;;4.80;99.90;;;;;;5052258;28;20511;-70
2023/12/15 06:34:48;;;;;;;9.43;7.10;;;4.70;99.90;;;;;;5052262;28;20177;-72
2023/12/15 06:37:13;;;;;;;10.30;8.00;;;4.70;99.90;;;;;;5051884;28;20196;-70
2023/12/15 06:39:39;;;;;;;9.90;7.60;;;4.70;99.90;;;;;;5051781;28;20197;-70
2023/12/15 06:42:04;;;;;;;10.13;7.57;;;4.70;99.90;;;;;;5051833;28;20170;-72
2023/12/15 06:44:31;;;;;;;11.07;8.33;;;4.70;99.90;;;;;;5033268;28;20213;-69
2023/12/15 06:46:56;;;;;;;12.63;8.00;;;4.70;99.90;;;;;;5048777;28;20588;-70
2023/12/15 06:49:30;;;;;;;11.13;8.53;;;4.70;99.90;;;;;;5052040;28;20428;-69
2023/12/15 06:52:01;;;;;;;12.00;8.27;;;4.70;99.90;;;;;;5051952;28;20189;-70
2023/12/15 06:54:26;;;;;;;9.73;8.47;;;4.70;99.90;;;;;;5051077;28;20499;-70
2023/12/15 06:56:52;;;;;;;9.80;7.27;;;4.70;99.90;;;;;;5035337;28;20567;-72
2023/12/15 06:59:17;;;;;;;9.20;8.20;;;4.70;99.90;;;;;;5039662;28;20247;-70
2023/12/15 07:01:43;;;;;;;11.80;9.27;;;4.70;99.90;;;;;;5031345;28;20605;-70
2023/12/15 07:04:09;;;;;;;12.67;8.80;;;4.70;99.90;;;;;;5035488;28;20175;-70
2023/12/15 07:06:34;;;;;;;8.80;7.83;;;4.70;99.90;;;;;;5048796;28;20173;-70
2023/12/15 07:09:00;;;;;;;9.33;7.50;;;4.80;99.90;;;;;;5048719;28;20510;-70
2023/12/15 07:11:25;;;;;;;10.20;7.70;;;4.80;99.90;;;;;;5031579;28;20210;-70
2023/12/15 07:13:51;;;;;;;9.17;7.67;;;4.80;99.90;;;;;;5028153;28;20639;-65
2023/12/15 07:16:16;;;;;;;8.60;6.87;;;4.80;99.90;;;;;;5024570;28;20574;-69
2023/12/15 07:18:42;;;;;;;11.37;9.63;;;4.80;99.90;;;;;;5028918;28;20181;-69
2023/12/15 07:21:08;;;;;;;12.13;9.00;;;4.90;99.90;;;;;;5024528;28;20210;-69
2023/12/15 07:23:34;;;;;;;13.73;9.60;;;4.90;99.90;;;;;;5036727;28;20425;-69
2023/12/15 07:26:00;;;;;;;8.00;7.20;;;4.90;99.90;;;;;;5036230;28;20552;-69
2023/12/15 07:28:26;;;;;;;11.27;9.30;;;4.90;99.90;;;;;;5030578;28;20429;-69
2023/12/15 07:30:51;;;;;;;10.23;7.53;;;4.90;99.90;;;;;;5035033;28;20988;-69
2023/12/15 07:33:17;;;;;;;12.80;9.30;;;4.90;99.90;;;;;;5039696;28;20206;-69
2023/12/15 07:35:42;;;;;;;10.70;7.53;;;4.90;99.90;;;;;;5038915;28;20184;-69
2023/12/15 07:38:09;;;;;;;9.50;7.73;;;4.90;99.90;;;;;;5010981;28;20681;-69
2023/12/15 07:40:35;;;;;;;12.30;8.70;;;4.90;99.90;;;;;;5042127;28;20573;-69
2023/12/15 07:43:01;;;;;;;12.03;9.43;;;5.00;99.90;;;;;;5042598;28;20425;-69
2023/12/15 07:45:26;;;;;;;8.67;7.47;;;5.00;99.90;;;;;;5028429;28;20206;-69
2023/12/15 07:47:52;;;;;;;10.37;9.13;;;5.00;99.90;;;;;;5033668;28;20175;-69
2023/12/15 07:50:18;;;;;;;10.67;9.07;;;5.00;99.90;;;;;;5038635;28;20573;-69
2023/12/15 07:52:43;;;;;;;10.17;8.67;;;5.00;99.90;;;;;;5041581;28;20412;-69
2023/12/15 07:55:09;;;;;;;12.50;9.27;;;5.00;99.90;;;;;;5033246;28;20273;-69
2023/12/15 07:57:35;;;;;;;10.53;8.47;;;5.00;99.90;;;;;;5038907;28;20186;-69
2023/12/15 08:00:00;;;;;;;12.13;9.73;;;5.00;99.90;;;;;;5032194;28;20210;-69
2023/12/15 08:02:25;;;;;;;8.73;7.40;;;5.10;99.90;;;;;;5033687;28;20256;-69
2023/12/15 08:04:51;;;;;;;10.87;9.70;;;5.10;99.90;;;;;;5035566;28;20687;-69
2023/12/15 08:07:17;;;;;;;12.60;9.30;;;5.10;99.90;;;;;;5033238;28;20185;-69
2023/12/15 08:09:42;;;;;;;10.23;9.13;;;5.20;99.90;;;;;;5031131;28;20686;-69
2023/12/15 08:12:08;;;;;;;9.23;7.90;;;5.20;99.90;;;;;;5033399;28;20198;-69
2023/12/15 08:14:33;;;;;;;11.90;9.83;;;5.20;99.90;;;;;;5031290;28;20538;-69
2023/12/15 08:16:59;;;;;;;11.53;8.07;;;5.20;99.90;;;;;;5033177;28;20217;-69
2023/12/15 08:19:24;;;;;;;10.93;9.77;;;5.20;99.90;;;;;;5038494;28;20292;-68
2023/12/15 08:21:51;;;;;;;12.60;9.00;;;5.30;99.90;;;;;;5030813;28;20209;-70
2023/12/15 08:24:17;;;;;;;12.63;9.17;;;5.30;99.90;;;;;;5012997;28;20182;-69
2023/12/15 08:26:42;;;;;;;14.17;10.00;;;5.30;99.90;;;;;;5015107;28;20512;-68
2023/12/15 08:29:08;;;;;;;17.60;9.73;;;5.40;99.90;;;;;;5034064;28;20868;-69
2023/12/15 08:31:34;;;;;;;11.60;9.10;;;5.30;99.90;;;;;;5033826;28;20205;-69
2023/12/15 08:33:59;;;;;;;11.30;9.80;;;5.30;99.90;;;;;;5033618;28;20189;-69
2023/12/15 08:36:25;;;;;;;12.37;9.10;;;5.30;99.90;;;;;;5032533;28;20182;-69
2023/12/15 08:38:50;;;;;;;13.67;9.90;;;5.30;99.90;;;;;;5042495;28;20273;-69
2023/12/15 08:41:16;;;;;;;13.00;10.27;;;5.30;99.90;;;;;;5033606;28;20210;-69
2023/12/15 08:43:41;;;;;;;11.90;9.20;;;5.30;99.90;;;;;;5016164;28;20261;-69
2023/12/15 08:46:07;;;;;;;11.13;8.80;;;5.20;99.90;;;;;;5032576;28;20253;-69
2023/12/15 08:48:32;;;;;;;15.10;10.83;;;5.20;99.90;;;;;;5033182;28;20624;-70
2023/12/15 08:50:58;;;;;;;13.67;9.53;;;5.20;99.90;;;;;;5034994;28;20209;-71
2023/12/15 08:53:23;;;;;;;13.73;10.10;;;5.20;99.90;;;;;;5040844;28;20189;-71
2023/12/15 08:55:49;;;;;;;14.63;10.90;;;5.20;99.90;;;;;;5034714;28;20265;-71
2023/12/15 08:58:14;;;;;;;14.87;10.07;;;5.20;99.90;;;;;;5029262;28;20209;-71
2023/12/15 09:00:40;;;;;;;12.53;10.00;;;5.20;99.90;;;;;;5031369;28;20233;-70
2023/12/15 09:03:07;;;;;;;17.47;11.17;;;5.30;99.90;;;;;;5031895;28;20210;-68
2023/12/15 09:05:33;;;;;;;14.00;9.57;;;5.30;99.90;;;;;;5041126;28;20514;-70
2023/12/15 09:07:59;;;;;;;13.17;11.77;;;5.40;99.90;;;;;;5038873;28;20444;-69
2023/12/15 09:10:26;;;;;;;14.43;10.77;;;5.50;99.90;;;;;;5035597;28;20280;-69
2023/12/15 09:12:52;;;;;;;13.77;9.70;;;5.50;99.90;;;;;;5042286;28;20494;-69
2023/12/15 09:15:17;;;;;;;15.97;10.70;;;5.60;99.90;;;;;;5032967;28;20433;-69
2023/12/15 09:17:44;;;;;;;13.80;10.47;;;5.60;99.90;;;;;;5047506;28;20522;-69
2023/12/15 09:20:11;;;;;;;17.13;12.80;;;5.60;99.90;;;;;;5031420;28;20209;-69
2023/12/15 09:22:37;;;;;;;14.87;10.50;;;5.70;99.90;;;;;;5033306;28;20452;-69
2023/12/15 09:25:04;;;;;;;15.43;11.57;;;5.70;99.90;;;;;;5029280;28;20441;-69
2023/12/15 09:27:29;;;;;;;14.57;10.47;;;5.70;99.90;;;;;;5012534;28;20652;-69
2023/12/15 09:29:54;;;;;;;15.03;11.10;;;5.80;99.90;;;;;;5027346;28;20480;-69
2023/12/15 09:32:20;;;;;;;14.57;10.47;;;5.80;99.90;;;;;;5027284;28;20186;-69
2023/12/15 09:34:46;;;;;;;17.83;11.03;;;5.90;99.90;;;;;;5029821;28;20201;-69
2023/12/15 09:37:12;;;;;;;16.13;11.30;;;6.00;99.90;;;;;;5031681;28;20193;-69
2023/12/15 09:39:38;;;;;;;14.27;10.43;;;6.00;99.90;;;;;;5030475;28;20194;-69
2023/12/15 09:42:04;;;;;;;12.90;9.80;;;6.10;99.90;;;;;;5013956;28;20802;-69
2023/12/15 09:44:30;;;;;;;12.93;10.50;;;6.20;99.90;;;;;;5029635;28;20182;-69
2023/12/15 09:46:57;;;;;;;15.57;10.83;;;6.30;99.90;;;;;;5019520;28;20483;-69
2023/12/15 09:49:25;;;;;;;12.90;10.43;;;6.30;99.90;;;;;;5032171;28;20186;-69
2023/12/15 09:51:51;;;;;;;14.83;10.67;;;6.40;99.90;;;;;;5037871;28;20512;-69
2023/12/15 09:54:17;;;;;;;14.63;10.30;;;6.50;99.90;;;;;;5032059;28;20844;-69
2023/12/15 09:56:43;;;;;;;15.13;10.80;;;6.70;99.90;;;;;;5041577;28;20874;-69
2023/12/15 09:59:09;;;;;;;14.27;10.53;;;6.70;99.90;;;;;;5050237;28;20511;-69
2023/12/15 10:01:35;;;;;;;13.20;10.90;;;6.90;99.90;;;;;;5040884;28;20437;-69
2023/12/15 10:04:01;;;;;;;14.03;10.40;;;7.10;99.90;;;;;;5040052;28;20575;-69
2023/12/15 10:06:26;;;;;;;13.50;10.77;;;7.60;99.90;;;;;;5039184;28;20795;-69
2023/12/15 10:08:52;;;;;;;14.07;9.63;;;7.90;99.90;;;;;;5031847;28;20221;-70
2023/12/15 10:11:18;;;;;;;10.80;9.50;;;8.30;99.90;;;;;;5031206;28;20230;-69
2023/12/15 10:13:44;;;;;;;13.57;9.60;;;8.90;99.90;;;;;;5037641;28;20204;-70
2023/12/15 10:16:10;;;;;;;13.13;9.70;;;9.20;99.90;;;;;;5034837;28;20964;-69
2023/12/15 10:18:37;;;;;;;9.33;8.37;;;9.40;99.90;;;;;;5032259;28;20174;-70
2023/12/15 10:21:04;;;;;;;14.10;8.57;;;9.30;99.90;;;;;;5031927;28;20466;-69
2023/12/15 10:23:31;;;;;;;10.07;8.37;;;8.90;99.90;;;;;;5031607;28;20420;-69
2023/12/15 10:26:04;;;;;;;10.80;9.27;;;9.00;99.90;;;;;;5046946;28;20481;-68
2023/12/15 10:28:40;;;;;;;11.27;9.43;;;9.00;99.90;;;;;;5031033;28;20425;-68
2023/12/15 10:31:07;;;;;;;8.40;7.57;;;9.10;99.90;;;;;;5025090;28;20494;-68
2023/12/15 10:33:35;;;;;;;9.77;8.73;;;9.30;99.90;;;;;;5031704;28;20433;-68
2023/12/15 10:36:02;;;;;;;13.60;10.63;;;9.40;99.90;;;;;;5038732;28;20522;-68
2023/12/15 10:38:31;;;;;;;8.73;7.83;;;9.20;99.90;;;;;;5040352;28;20416;-68
2023/12/15 10:41:00;;;;;;;12.90;8.63;;;9.00;99.90;;;;;;5032274;28;20460;-68
2023/12/15 10:43:27;;;;;;;9.27;8.30;;;9.00;99.90;;;;;;5035599;28;20433;-68
2023/12/15 10:45:53;;;;;;;8.67;7.77;;;8.80;99.90;;;;;;5033656;28;20516;-68
2023/12/15 10:48:19;;;;;;;9.03;7.83;;;9.10;99.90;;;;;;5031587;28;20938;-68
2023/12/15 10:50:45;;;;;;;10.90;9.63;;;9.20;99.90;;;;;;5032184;28;20447;-68
2023/12/15 10:53:13;;;;;;;17.40;9.47;;;9.30;99.90;;;;;;5037405;28;20424;-68
2023/12/15 10:55:43;;;;;;;14.53;9.10;;;9.10;99.90;;;;;;5039556;28;20969;-68
2023/12/15 10:58:10;;;;;;;12.53;8.63;;;8.90;99.90;;;;;;5034188;28;20444;-68
2023/12/15 11:00:36;;;;;;;14.57;9.60;;;8.70;99.90;;;;;;5036488;28;20495;-68
2023/12/15 11:03:04;;;;;;;11.57;8.70;;;8.50;99.90;;;;;;5030171;28;20432;-68
2023/12/15 11:05:32;;;;;;;9.90;8.87;;;8.40;99.90;;;;;;5029030;28;20523;-68
2023/12/15 11:07:59;;;;;;;9.17;8.23;;;8.30;99.90;;;;;;5025380;28;20520;-68
2023/12/15 11:10:25;;;;;;;10.83;8.70;;;8.30;99.90;;;;;;5027423;28;20476;-68
2023/12/15 11:12:52;;;;;;;10.20;7.40;;;8.40;99.90;;;;;;5030612;28;20440;-68
2023/12/15 11:15:18;;;;;;;9.63;8.57;;;8.20;99.90;;;;;;5030110;28;20439;-68
2023/12/15 11:17:49;;;;;;;8.00;7.20;;;8.20;99.90;;;;;;5026901;28;20432;-68
2023/12/15 11:20:20;;;;;;;8.83;7.40;;;8.40;99.90;;;;;;5036989;28;20486;-68
2023/12/15 11:23:04;;;;;;;10.30;8.10;;;8.60;99.90;;;;;;5046174;28;20424;-68
2023/12/15 11:25:31;;;;;;;9.90;7.67;;;8.70;99.90;;;;;;5043211;28;20428;-68
2023/12/15 11:28:03;;;;;;;9.27;8.20;;;8.70;99.90;;;;;;5037211;28;20433;-69
2023/12/15 11:30:42;;;;;;;11.00;8.93;;;8.70;99.90;;;;;;5034040;28;20539;-68
2023/12/15 11:33:26;;;;;;;8.13;7.20;;;8.90;99.90;;;;;;5035563;28;20424;-68
2023/12/15 11:35:53;;;;;;;9.03;8.13;;;9.00;99.90;;;;;;5035639;28;20894;-68
2023/12/15 11:38:22;;;;;;;8.10;7.30;;;9.00;99.90;;;;;;5035260;28;20431;-68
2023/12/15 11:40:48;;;;;;;10.63;8.30;;;8.90;99.90;;;;;;5035308;28;20842;-68
2023/12/15 11:43:14;;;;;;;7.70;6.90;;;8.70;99.90;;;;;;5031578;28;20436;-68
2023/12/15 11:45:41;;;;;;;9.80;8.10;;;8.80;99.90;;;;;;5035188;28;20801;-68
2023/12/15 11:48:09;;;;;;;7.63;6.87;;;8.90;99.90;;;;;;5039452;28;20175;-67
2023/12/15 11:50:35;;;;;;;10.03;7.20;;;9.00;99.90;;;;;;5043717;28;20477;-68
2023/12/15 11:53:05;;;;;;;10.10;8.10;;;9.00;99.90;;;;;;5039121;28;20485;-67
2023/12/15 11:55:31;;;;;;;6.80;6.10;;;9.00;99.90;;;;;;5036957;28;20585;-68
2023/12/15 11:57:56;;;;;;;10.63;6.30;;;9.00;99.90;;;;;;5046334;28;20424;-68
2023/12/15 12:00:22;;;;;;;7.50;6.30;;;8.90;99.90;;;;;;5052500;28;20300;-67
2023/12/15 12:02:48;;;;;;;8.07;6.70;;;9.10;99.90;;;;;;5035178;28;20570;-67
2023/12/15 12:05:14;;;;;;;7.77;6.30;;;9.10;99.90;;;;;;5035125;28;20162;-67
2023/12/15 12:07:40;;;;;;;7.20;6.50;;;9.00;99.90;;;;;;5034776;28;20831;-67
2023/12/15 12:10:06;;;;;;;6.50;5.90;;;9.20;99.90;;;;;;5035260;28;20448;-66
2023/12/15 12:12:32;;;;;;;5.80;5.20;;;9.10;99.90;;;;;;5034765;28;20189;-67
2023/12/15 12:15:04;;;;;;;6.30;5.67;;;9.20;99.90;;;;;;5034881;28;20420;-67
2023/12/15 12:17:30;;;;;;;6.27;5.67;;;9.30;99.90;;;;;;5033309;28;20801;-66
2023/12/15 12:20:09;;;;;;;6.07;5.17;;;9.70;99.90;;;;;;5032972;28;20563;-67
2023/12/15 12:22:38;;;;;;;7.37;6.00;;;10.00;99.90;;;;;;5034647;28;20416;-67
2023/12/15 12:25:04;;;;;;;8.30;6.90;;;10.40;99.90;;;;;;5034580;28;20432;-66
2023/12/15 12:27:32;;;;;;;5.93;5.43;;;10.30;99.90;;;;;;5034376;28;20436;-67
2023/12/15 12:29:59;;;;;;;5.60;5.10;;;10.10;99.90;;;;;;5034270;28;20539;-67
2023/12/15 12:32:25;;;;;;;5.77;5.17;;;9.70;99.90;;;;;;5034749;28;20436;-67
2023/12/15 12:34:51;;;;;;;7.07;6.37;;;9.30;99.90;;;;;;5034414;28;20441;-66
2023/12/15 12:37:17;;;;;;;7.63;5.77;;;9.00;99.90;;;;;;5034031;28;20436;-66
2023/12/15 12:39:42;;;;;;;6.07;5.30;;;8.80;99.90;;;;;;5033122;28;20576;-66
2023/12/15 12:42:08;;;;;;;5.50;4.80;;;8.70;99.90;;;;;;5034584;28;20429;-67
2023/12/15 12:44:34;;;;;;;6.40;5.07;;;8.60;99.90;;;;;;5034504;28;20171;-67